Time;durP1;ratioP1;P1;durP2;ratioP2;P2;SDS_P1;SDS_P2;PMS_P1;PMS_P2;Temp;Humidity;BMP_temperature;BMP_pressure;BME280_temperature;BME280_humidity;BME280_pressure;Samples;Min_cycle;Max_cycle;Signal;HPM_P1;HPM_P2
2023/01/11 00:04:46;;;;;;;35.40;18.90;;;;;;;4.97;87.32;100232.50;209328;1291;140935;-67
2023/01/11 00:09:49;;;;;;;31.30;20.10;;;;;;;4.96;87.66;100230.62;209300;1292;140325;-65
2023/01/11 00:14:52;;;;;;;30.10;17.20;;;;;;;4.95;87.47;100232.52;209257;1288;140752;-69
2023/01/11 00:19:55;;;;;;;39.00;21.50;;;;;;;4.97;87.47;100237.02;208229;1292;142074;-63
2023/01/11 00:24:58;;;;;;;33.20;20.40;;;;;;;4.96;87.31;100238.21;208947;1285;141817;-64
2023/01/11 00:30:02;;;;;;;40.00;21.60;;;;;;;4.91;87.43;100241.20;208570;1292;141089;-64
2023/01/11 00:35:05;;;;;;;37.60;19.60;;;;;;;4.86;87.09;100239.14;208842;1298;140932;-63
2023/01/11 00:40:09;;;;;;;34.50;21.10;;;;;;;4.79;87.00;100236.68;208051;1294;141536;-66
2023/01/11 00:50:37;;;;;;;38.40;19.50;;;;;;;4.65;87.40;100242.31;207918;1300;139645;-65
2023/01/11 00:55:41;;;;;;;34.20;18.50;;;;;;;4.63;87.61;100250.20;209502;1291;140682;-66
2023/01/11 01:00:44;;;;;;;35.40;21.70;;;;;;;4.65;87.51;100256.31;208946;1291;140723;-66
2023/01/11 01:05:46;;;;;;;32.20;21.50;;;;;;;4.59;87.46;100251.30;210186;1295;140374;-66
2023/01/11 01:10:51;;;;;;;35.70;20.90;;;;;;;4.52;87.22;100258.97;208873;1291;141408;-63
2023/01/11 01:15:58;;;;;;;37.20;21.20;;;;;;;4.44;86.96;100260.99;209253;1300;141254;-63
2023/01/11 01:21:02;;;;;;;38.40;23.10;;;;;;;4.41;87.12;100252.85;210496;1288;141443;-66
2023/01/11 01:26:05;;;;;;;38.40;21.10;;;;;;;4.45;87.86;100244.77;209073;1292;141565;-65
2023/01/11 01:31:08;;;;;;;41.10;20.60;;;;;;;4.51;87.90;100241.41;210659;1294;140368;-66
2023/01/11 01:36:11;;;;;;;43.30;23.00;;;;;;;4.54;87.09;100234.39;208802;1294;141075;-63
2023/01/11 01:41:13;;;;;;;35.10;21.40;;;;;;;4.41;87.07;100237.46;209420;1286;142055;-66
2023/01/11 01:46:17;;;;;;;33.40;20.60;;;;;;;4.29;87.14;100233.44;210100;1291;140667;-63
2023/01/11 01:51:30;;;;;;;36.80;22.20;;;;;;;4.23;87.47;100225.48;210076;1295;140525;-64
2023/01/11 01:56:44;;;;;;;47.00;24.00;;;;;;;4.29;87.49;100216.91;208861;1292;140193;-66
2023/01/11 02:01:49;;;;;;;41.90;22.10;;;;;;;4.33;87.36;100207.79;209123;1292;140973;-64
2023/01/11 02:07:01;;;;;;;33.90;20.60;;;;;;;4.30;87.05;100200.47;208298;1293;139942;-64
2023/01/11 02:12:05;;;;;;;40.40;22.50;;;;;;;4.15;86.87;100201.73;208804;1286;140433;-64
2023/01/11 02:17:09;;;;;;;41.50;23.10;;;;;;;3.95;86.19;100208.91;209065;1292;139718;-63
2023/01/11 02:22:34;;;;;;;32.40;20.70;;;;;;;3.73;85.80;100212.70;208033;1286;141166;-65
2023/01/11 02:27:56;;;;;;;33.90;20.40;;;;;;;3.55;86.03;100208.52;208489;1286;142217;-63
2023/01/11 02:33:33;;;;;;;32.60;21.50;;;;;;;3.42;86.05;100202.98;208296;1291;140248;-64
2023/01/11 02:38:54;;;;;;;35.40;19.90;;;;;;;3.29;85.98;100206.26;208910;1292;139691;-65
2023/01/11 02:50:02;;;;;;;33.80;21.30;;;;;;;2.75;84.98;100212.62;208475;1293;245780;-65
2023/01/11 02:55:08;;;;;;;36.20;20.30;;;;;;;2.42;84.91;100221.02;209261;1295;141808;-65
2023/01/11 03:00:15;;;;;;;20.30;14.20;;;;;;;2.17;84.63;100220.27;209534;1286;140708;-65
2023/01/11 03:05:19;;;;;;;25.00;17.50;;;;;;;1.88;84.77;100225.20;209795;1286;140486;-64
2023/01/11 03:10:49;;;;;;;28.60;16.60;;;;;;;1.71;85.10;100218.72;210214;1285;140839;-65
2023/01/11 03:16:07;;;;;;;28.30;19.60;;;;;;;1.79;85.78;100220.30;210509;1295;141539;-66
2023/01/11 03:21:23;;;;;;;;;;;;;;;1.91;86.49;100217.13;210681;1293;141448;-66
2023/01/11 03:26:44;;;;;;;35.90;19.80;;;;;;;2.02;87.08;100210.42;211483;1287;125392;-64
2023/01/11 03:31:59;;;;;;;36.50;20.70;;;;;;;2.10;86.62;100204.10;210104;1291;140744;-65
2023/01/11 03:37:14;;;;;;;40.60;25.20;;;;;;;2.22;86.87;100199.38;209844;1295;141095;-66
2023/01/11 03:42:22;;;;;;;31.80;19.60;;;;;;;2.29;87.29;100203.14;209073;1291;141108;-65
2023/01/11 03:47:29;;;;;;;42.30;25.10;;;;;;;2.29;87.40;100198.89;209162;1285;140180;-65
2023/01/11 03:52:40;;;;;;;39.80;22.40;;;;;;;2.34;87.76;100196.48;208883;1299;140236;-66
2023/01/11 03:57:51;;;;;;;39.00;23.60;;;;;;;2.43;88.01;100191.30;209140;1288;141603;-65
2023/01/11 04:02:55;;;;;;;37.70;22.80;;;;;;;2.42;87.79;100195.09;208708;1288;141560;-65
2023/01/11 04:07:57;;;;;;;43.80;25.90;;;;;;;2.43;88.19;100184.30;207794;1300;140940;-67
2023/01/11 04:13:02;;;;;;;44.70;28.40;;;;;;;2.46;88.05;100175.17;208239;1284;142229;-64
2023/01/11 04:18:05;;;;;;;39.40;23.20;;;;;;;2.45;88.23;100169.27;207852;1278;141867;-66
2023/01/11 04:23:11;;;;;;;43.10;23.70;;;;;;;2.38;88.25;100169.02;208564;1289;141527;-64
2023/01/11 04:28:15;;;;;;;47.00;28.00;;;;;;;2.35;88.17;100167.73;208019;1294;139967;-65
2023/01/11 04:33:18;;;;;;;46.40;27.60;;;;;;;2.32;88.43;100166.50;209271;1285;140715;-64
2023/01/11 04:38:23;;;;;;;34.40;21.40;;;;;;;2.30;88.47;100166.17;207956;1278;140274;-65
2023/01/11 04:43:28;;;;;;;39.20;24.50;;;;;;;2.34;88.78;100164.88;208893;1285;140326;-65
2023/01/11 04:48:32;;;;;;;37.50;23.40;;;;;;;2.36;89.08;100163.98;208593;1291;139490;-65
2023/01/11 04:53:35;;;;;;;43.90;24.90;;;;;;;2.37;88.77;100161.94;209575;1292;140849;-65
2023/01/11 04:58:38;;;;;;;43.90;24.40;;;;;;;2.40;88.94;100158.52;208528;1286;141853;-65
2023/01/11 05:03:41;;;;;;;42.00;23.70;;;;;;;2.38;88.97;100156.98;208314;1285;237157;-66
2023/01/11 05:08:45;;;;;;;49.40;24.50;;;;;;;2.35;88.97;100156.65;210357;1291;142071;-67
2023/01/11 05:13:50;;;;;;;35.80;22.30;;;;;;;2.39;89.69;100159.70;210536;1286;141793;-65
2023/01/11 05:18:55;;;;;;;36.00;21.60;;;;;;;2.43;89.51;100160.77;210568;1287;141154;-65
2023/01/11 05:24:00;;;;;;;35.90;21.90;;;;;;;2.49;89.55;100158.84;210491;1285;141853;-66
2023/01/11 05:29:07;;;;;;;36.50;18.30;;;;;;;2.49;89.32;100146.58;209143;1286;141102;-66
2023/01/11 05:34:13;;;;;;;30.00;16.60;;;;;;;2.49;89.46;100139.40;209652;1284;140305;-65
2023/01/11 05:39:15;;;;;;;28.20;15.10;;;;;;;2.45;89.47;100137.80;208573;1285;142172;-67
2023/01/11 05:49:42;;;;;;;23.30;14.80;;;;;;;2.44;89.42;100134.21;208240;1287;140350;-64
2023/01/11 05:54:45;;;;;;;25.80;16.20;;;;;;;2.35;89.41;100131.47;210191;1283;140404;-65
2023/01/11 05:59:49;;;;;;;18.90;11.20;;;;;;;2.35;89.56;100123.90;208717;1285;140278;-64
2023/01/11 06:04:52;;;;;;;26.80;15.80;;;;;;;2.36;89.55;100122.48;208340;1285;140870;-64
2023/01/11 06:09:58;;;;;;;22.60;14.50;;;;;;;2.32;89.91;100120.59;208404;1288;141619;-63
2023/01/11 06:15:02;;;;;;;28.10;16.40;;;;;;;2.29;89.71;100119.81;209090;1294;141374;-64
2023/01/11 06:20:06;;;;;;;25.50;14.50;;;;;;;2.27;89.76;100109.92;209152;1284;141585;-65
2023/01/11 06:25:10;;;;;;;22.90;13.80;;;;;;;2.29;89.74;100103.71;208986;1288;142237;-64
2023/01/11 06:30:14;;;;;;;22.70;13.90;;;;;;;2.23;89.72;100100.50;207997;1292;140697;-65
2023/01/11 06:35:19;;;;;;;20.60;13.80;;;;;;;2.17;89.80;100097.97;209791;1295;139800;-65
2023/01/11 06:40:22;;;;;;;21.80;13.70;;;;;;;2.12;89.88;100093.20;208702;1286;140710;-66
2023/01/11 06:45:26;;;;;;;24.30;14.70;;;;;;;2.09;90.23;100090.92;207949;1281;140289;-64
2023/01/11 06:50:30;;;;;;;25.70;14.00;;;;;;;2.09;90.29;100092.99;208798;1286;140638;-66
2023/01/11 06:55:35;;;;;;;19.50;12.10;;;;;;;2.16;90.65;100094.35;207729;1291;140077;-67
2023/01/11 07:00:38;;;;;;;28.80;14.90;;;;;;;2.18;90.51;100091.45;209221;1282;140165;-66
2023/01/11 07:05:42;;;;;;;24.50;15.70;;;;;;;2.24;90.80;100085.51;210635;1295;141217;-67
2023/01/11 07:10:47;;;;;;;16.10;10.70;;;;;;;2.31;90.87;100087.88;210781;1286;141106;-66
2023/01/11 07:15:52;;;;;;;25.50;14.00;;;;;;;2.34;90.66;100080.34;210548;1294;141053;-67
2023/01/11 07:20:56;;;;;;;23.00;13.60;;;;;;;2.41;90.69;100082.80;210622;1278;141424;-67
2023/01/11 07:25:59;;;;;;;17.40;10.90;;;;;;;2.39;90.71;100080.62;209342;1284;140260;-67
2023/01/11 07:31:03;;;;;;;22.50;13.50;;;;;;;2.37;90.67;100074.95;209943;1278;140468;-68
2023/01/11 07:36:07;;;;;;;21.40;11.90;;;;;;;2.40;90.52;100066.56;209280;1278;140083;-67
2023/01/11 07:46:31;;;;;;;22.50;13.50;;;;;;;2.48;91.06;100082.45;207746;1291;141222;-67
2023/01/11 07:51:34;;;;;;;21.20;12.70;;;;;;;2.55;90.66;100082.50;208384;1278;141348;-64
2023/01/11 07:56:37;;;;;;;19.20;12.50;;;;;;;2.56;90.42;100085.98;209389;1278;153621;-66
2023/01/11 08:01:40;;;;;;;24.60;12.60;;;;;;;2.56;90.60;100087.70;208673;1295;139978;-66
2023/01/11 08:06:44;;;;;;;28.70;14.50;;;;;;;2.63;90.67;100087.60;208412;1284;144230;-67
2023/01/11 08:17:15;;;;;;;22.70;12.50;;;;;;;2.85;90.58;100077.52;208976;1284;141061;-65
2023/01/11 08:22:18;;;;;;;18.20;10.60;;;;;;;2.85;90.32;100076.23;207537;1288;141075;-65
2023/01/11 08:27:20;;;;;;;25.50;14.00;;;;;;;2.89;90.31;100072.69;208955;1286;141769;-66
2023/01/11 08:32:27;;;;;;;24.80;13.80;;;;;;;2.90;90.27;100075.71;208348;1285;140663;-66
2023/01/11 08:37:31;;;;;;;24.70;13.00;;;;;;;2.86;90.14;100077.19;209284;1294;494490;-66
2023/01/11 08:42:34;;;;;;;25.80;14.10;;;;;;;2.88;90.15;100071.25;209273;1291;140068;-67
2023/01/11 08:47:37;;;;;;;23.90;14.10;;;;;;;2.98;90.32;100058.98;210057;1288;140912;-67
2023/01/11 08:52:42;;;;;;;24.70;14.60;;;;;;;3.12;90.38;100057.57;209916;1295;141006;-66
2023/01/11 08:57:46;;;;;;;29.90;16.70;;;;;;;3.29;90.86;100057.78;209632;1288;139942;-63
2023/01/11 09:02:49;;;;;;;26.00;13.50;;;;;;;3.43;90.42;100057.01;208424;1278;139633;-66
2023/01/11 09:07:56;;;;;;;26.40;16.60;;;;;;;3.54;90.04;100048.38;210690;1295;140467;-66
2023/01/11 09:13:00;;;;;;;28.00;13.10;;;;;;;3.55;90.21;100058.97;210139;1291;139642;-66
2023/01/11 09:18:02;;;;;;;19.90;11.90;;;;;;;3.68;90.35;100055.91;208570;1284;140444;-66
2023/01/11 09:23:05;;;;;;;27.40;16.30;;;;;;;3.88;90.30;100053.98;207719;1286;142352;-65
2023/01/11 09:28:09;;;;;;;23.70;15.00;;;;;;;4.03;90.38;100047.02;207804;1278;247927;-66
2023/01/11 09:33:11;;;;;;;26.20;15.50;;;;;;;4.11;90.14;100033.52;209212;1294;141069;-66
2023/01/11 09:38:15;;;;;;;18.80;12.30;;;;;;;4.24;90.37;100024.18;208179;1281;143824;-66
2023/01/11 09:43:24;;;;;;;23.40;14.20;;;;;;;4.33;90.36;100013.05;208744;1294;140814;-63
2023/01/11 09:48:42;;;;;;;17.80;11.70;;;;;;;4.49;89.94;100002.54;207979;1278;141511;-66
2023/01/11 09:54:10;;;;;;;;;;;;;;;4.59;90.24;99999.70;207744;1285;139748;-68
2023/01/11 09:59:45;;;;;;;22.40;11.50;;;;;;;4.73;89.91;99993.56;207531;1290;125485;-66
2023/01/11 10:05:22;;;;;;;19.00;10.90;;;;;;;4.89;89.25;99993.61;206875;1297;142198;-65
2023/01/11 10:10:46;;;;;;;17.90;10.50;;;;;;;5.07;89.31;99985.50;208035;1291;140358;-65
2023/01/11 10:16:45;;;;;;;14.90;9.20;;;;;;;5.28;89.05;99976.80;207697;1287;141611;-66
2023/01/11 10:22:35;;;;;;;12.30;7.90;;;;;;;5.52;88.68;99971.85;206589;1291;224303;-68
2023/01/11 10:27:48;;;;;;;10.60;8.70;;;;;;;5.59;87.81;99971.11;206821;1284;140393;-71
2023/01/11 10:38:37;;;;;;;10.50;6.10;;;;;;;5.87;87.25;99961.55;208226;1295;140228;-70
2023/01/11 10:43:53;;;;;;;12.70;6.80;;;;;;;6.07;86.46;99950.44;209416;1295;139950;-71
2023/01/11 10:49:36;;;;;;;12.30;7.70;;;;;;;6.18;86.34;99950.48;209645;1285;140287;-78
2023/01/11 10:54:44;;;;;;;4.80;3.60;;;;;;;6.30;85.43;99943.15;210075;1294;235529;-69
2023/01/11 11:00:08;;;;;;;8.10;6.30;;;;;;;6.42;84.97;99937.89;208930;1286;141577;-71
2023/01/11 11:05:23;;;;;;;6.20;4.30;;;;;;;6.49;84.51;99935.61;208285;1291;139974;-69
2023/01/11 11:10:35;;;;;;;7.80;5.00;;;;;;;6.50;83.73;99931.75;210679;1294;140258;-67
2023/01/11 11:16:05;;;;;;;7.90;5.50;;;;;;;6.53;83.14;99933.59;209690;1294;140657;-68
2023/01/11 11:21:22;;;;;;;5.90;3.90;;;;;;;6.54;82.67;99921.33;208362;1294;139322;-68
2023/01/11 11:26:28;;;;;;;;;;;;;;;6.52;81.50;99914.19;208213;1292;140166;-68
2023/01/11 11:31:35;;;;;;;7.30;4.60;;;;;;;6.39;81.37;99907.02;210133;1292;126303;-68
2023/01/11 11:36:43;;;;;;;5.90;4.10;;;;;;;6.42;81.07;99891.79;208717;1286;140855;-66
2023/01/11 11:41:56;;;;;;;8.40;5.00;;;;;;;6.51;80.97;99890.52;208910;1287;139915;-68
2023/01/11 11:47:16;;;;;;;7.10;4.80;;;;;;;6.55;80.81;99875.64;207809;1282;139260;-67
2023/01/11 11:52:21;;;;;;;10.70;5.50;;;;;;;6.53;80.43;99854.21;207975;1298;139073;-69
2023/01/11 11:57:31;;;;;;;12.80;5.70;;;;;;;6.48;79.96;99840.23;207914;1295;140799;-68
2023/01/11 12:02:48;;;;;;;7.20;5.60;;;;;;;6.42;80.01;99829.02;208511;1282;233823;-68
2023/01/11 12:07:53;;;;;;;6.90;5.70;;;;;;;6.37;79.82;99815.83;208115;1286;139637;-68
2023/01/11 12:13:01;;;;;;;6.70;6.10;;;;;;;6.37;79.67;99800.84;207752;1294;139339;-68
2023/01/11 12:18:25;;;;;;;8.20;5.30;;;;;;;6.37;79.26;99795.91;208150;1285;141599;-68
2023/01/11 12:23:30;;;;;;;10.10;5.50;;;;;;;6.40;78.81;99786.38;207958;1286;140889;-67
2023/01/11 12:28:51;;;;;;;13.90;7.40;;;;;;;6.39;79.18;99779.54;208519;1294;141616;-68
2023/01/11 12:34:09;;;;;;;10.70;6.10;;;;;;;6.38;79.18;99772.29;208667;1286;139243;-68
2023/01/11 12:39:35;;;;;;;7.30;5.60;;;;;;;6.38;78.70;99762.06;208689;1298;140207;-67
2023/01/11 12:44:47;;;;;;;10.20;6.40;;;;;;;6.26;78.38;99749.81;208175;1288;139914;-68
2023/01/11 12:50:30;;;;;;;9.40;7.00;;;;;;;6.04;77.78;99740.52;210619;1294;139432;-68
2023/01/11 12:55:46;;;;;;;8.60;6.00;;;;;;;5.95;77.94;99739.27;210451;1287;141230;-69
2023/01/11 13:01:07;;;;;;;15.10;7.30;;;;;;;5.94;77.92;99723.70;210772;1295;139849;-68
2023/01/11 13:06:44;;;;;;;13.30;7.20;;;;;;;5.89;77.64;99716.30;209551;1279;139476;-68
2023/01/11 13:12:03;;;;;;;16.50;8.10;;;;;;;5.82;77.50;99709.64;207868;1292;230640;-68
2023/01/11 13:17:35;;;;;;;8.50;5.80;;;;;;;5.81;77.66;99714.62;208928;1278;140368;-68
2023/01/11 13:22:44;;;;;;;12.80;8.00;;;;;;;5.79;78.00;99707.09;207882;1286;139063;-68
2023/01/11 13:27:50;;;;;;;16.40;8.20;;;;;;;5.77;77.76;99706.08;208666;1286;140547;-68
2023/01/11 13:33:06;;;;;;;7.50;5.00;;;;;;;5.73;77.51;99702.01;208372;1285;140084;-66
2023/01/11 13:38:32;;;;;;;12.70;7.80;;;;;;;5.58;77.42;99698.01;207990;1298;139601;-68
2023/01/11 13:43:58;;;;;;;9.20;5.90;;;;;;;5.49;77.42;99697.36;208038;1292;141276;-68
2023/01/11 13:49:25;;;;;;;12.10;6.60;;;;;;;5.41;77.88;99700.25;208118;1285;139928;-68
2023/01/11 13:54:27;;;;;;;11.60;6.60;;;;;;;5.37;77.72;99699.91;208358;1294;139948;-67
2023/01/11 13:59:44;;;;;;;8.60;5.90;;;;;;;5.30;77.29;99707.34;207841;1282;139935;-68
2023/01/11 14:04:57;;;;;;;13.00;6.40;;;;;;;5.22;77.25;99703.34;208388;1292;139315;-69
2023/01/11 14:10:34;;;;;;;11.60;6.80;;;;;;;5.12;77.67;99700.61;208469;1278;150280;-68
2023/01/11 14:16:17;;;;;;;10.70;6.40;;;;;;;5.07;77.67;99705.31;207917;1294;142317;-69
2023/01/11 14:21:35;;;;;;;11.30;5.60;;;;;;;5.01;77.93;99703.10;207936;1291;140113;-67
2023/01/11 14:27:05;;;;;;;12.80;6.20;;;;;;;4.94;77.70;99702.58;208102;1291;139173;-68
2023/01/11 14:32:38;;;;;;;12.80;6.90;;;;;;;4.87;77.85;99700.17;209045;1285;140063;-68
2023/01/11 14:37:40;;;;;;;12.90;6.10;;;;;;;4.81;77.97;99699.88;209202;1286;139344;-68
2023/01/11 14:42:48;;;;;;;13.90;8.50;;;;;;;4.75;78.01;99690.76;210159;1288;139520;-69
2023/01/11 14:48:01;;;;;;;9.10;6.10;;;;;;;4.71;77.87;99692.27;210713;1291;140991;-68
2023/01/11 14:53:08;;;;;;;12.80;7.10;;;;;;;4.66;78.08;99684.54;210704;1284;139230;-67
2023/01/11 14:58:17;;;;;;;13.70;8.90;;;;;;;4.64;77.88;99679.33;210671;1292;140079;-67
2023/01/11 15:03:20;;;;;;;10.10;5.70;;;;;;;4.60;78.21;99669.57;210498;1295;140165;-67
2023/01/11 15:08:44;;;;;;;12.50;7.40;;;;;;;4.60;78.22;99670.45;207990;1292;140011;-67
2023/01/11 15:13:56;;;;;;;13.60;9.80;;;;;;;4.62;78.24;99678.88;207978;1286;139602;-67
2023/01/11 15:19:07;;;;;;;10.50;6.70;;;;;;;4.67;78.44;99673.05;209368;1279;140318;-67
2023/01/11 15:24:28;;;;;;;10.30;6.70;;;;;;;4.64;78.66;99667.23;209053;1294;140259;-68
2023/01/11 15:29:39;;;;;;;13.00;7.80;;;;;;;4.64;78.57;99657.06;208639;1294;139931;-68
2023/01/11 15:34:47;;;;;;;10.40;6.80;;;;;;;4.66;78.60;99652.36;209240;1292;139997;-67
2023/01/11 15:39:58;;;;;;;12.90;6.50;;;;;;;4.63;78.56;99647.60;208608;1286;139982;-67
2023/01/11 15:45:20;;;;;;;18.90;9.10;;;;;;;4.61;78.53;99642.23;208978;1298;139757;-66
2023/01/11 15:50:46;;;;;;;14.00;8.20;;;;;;;4.61;78.36;99644.54;208522;1286;140949;-67
2023/01/11 15:56:17;;;;;;;15.30;7.90;;;;;;;4.59;78.55;99642.02;208062;1285;140585;-67
2023/01/11 16:01:24;;;;;;;13.50;8.80;;;;;;;4.60;78.62;99628.01;208448;1292;140014;-67
2023/01/11 16:06:34;;;;;;;20.50;10.20;;;;;;;4.61;78.71;99622.77;207677;1294;247075;-68
2023/01/11 16:12:10;;;;;;;16.20;9.60;;;;;;;4.59;78.62;99620.23;208797;1300;140980;-67
2023/01/11 16:17:18;;;;;;;23.70;11.80;;;;;;;4.61;78.50;99615.50;209038;1295;139502;-68
2023/01/11 16:22:26;;;;;;;16.90;11.70;;;;;;;4.61;78.54;99613.95;209090;1293;140244;-68
2023/01/11 16:27:34;;;;;;;15.10;10.00;;;;;;;4.56;78.41;99603.86;208688;1295;140368;-67
2023/01/11 16:32:38;;;;;;;22.30;13.20;;;;;;;4.50;78.35;99600.30;208065;1291;150952;-67
2023/01/11 16:37:52;;;;;;;20.50;12.20;;;;;;;4.41;78.11;99590.69;209151;1294;139873;-67
2023/01/11 16:43:07;;;;;;;22.80;13.00;;;;;;;4.34;78.42;99592.64;210418;1298;140240;-68
2023/01/11 16:48:19;;;;;;;26.10;15.40;;;;;;;4.30;78.64;99592.46;210602;1295;140729;-69
2023/01/11 16:53:26;;;;;;;22.60;14.00;;;;;;;4.28;78.85;99593.03;210638;1295;139924;-68
2023/01/11 16:58:40;;;;;;;26.00;16.50;;;;;;;4.27;79.13;99591.83;208922;1285;249493;-67
2023/01/11 17:03:54;;;;;;;34.00;19.90;;;;;;;4.24;79.30;99589.38;209989;1298;140258;-69
2023/01/11 17:09:18;;;;;;;27.30;16.60;;;;;;;4.19;79.55;99585.22;210314;1291;139569;-67
2023/01/11 17:14:35;;;;;;;32.40;19.90;;;;;;;4.18;79.83;99579.77;210764;1287;140354;-68
2023/01/11 17:19:49;;;;;;;;;;;;;;;4.18;80.03;99577.30;209141;1291;142755;-68
2023/01/11 17:25:04;;;;;;;27.00;15.60;;;;;;;4.12;80.54;99580.52;209428;1295;136964;-68
2023/01/11 17:30:22;;;;;;;30.60;17.40;;;;;;;4.06;80.32;99585.35;209869;1292;139791;-67
2023/01/11 17:35:42;;;;;;;33.20;17.90;;;;;;;4.03;80.86;99586.83;207822;1291;140841;-68
2023/01/11 17:40:47;;;;;;;33.70;16.20;;;;;;;4.00;80.89;99580.82;208282;1292;139843;-67
2023/01/11 17:45:56;;;;;;;32.60;19.30;;;;;;;4.00;80.96;99583.34;207801;1286;140370;-67
2023/01/11 17:51:22;;;;;;;31.20;17.90;;;;;;;3.94;81.30;99585.91;208435;1291;224794;-68
2023/01/11 17:56:40;;;;;;;30.10;18.30;;;;;;;3.96;81.54;99578.19;208580;1286;141009;-67
2023/01/11 18:01:52;;;;;;;32.70;19.70;;;;;;;3.99;81.41;99574.73;208059;1285;142817;-67
2023/01/11 18:07:18;;;;;;;31.30;19.70;;;;;;;4.00;81.65;99577.56;208068;1292;142115;-67
2023/01/11 18:12:31;;;;;;;29.10;18.10;;;;;;;4.04;81.64;99567.69;208913;1298;144541;-67
2023/01/11 18:17:41;;;;;;;34.90;19.60;;;;;;;4.06;81.50;99567.73;208275;1291;139674;-67
2023/01/11 18:23:01;;;;;;;41.90;18.80;;;;;;;4.07;81.60;99565.76;207648;1291;141964;-66
2023/01/11 18:28:29;;;;;;;35.60;18.70;;;;;;;4.09;81.40;99560.25;209067;1293;140749;-68
2023/01/11 18:33:33;;;;;;;33.30;20.00;;;;;;;4.12;81.40;99558.84;207621;1291;141082;-68
2023/01/11 18:38:36;;;;;;;37.70;19.40;;;;;;;4.09;81.44;99559.88;207992;1294;141946;-67
2023/01/11 18:43:42;;;;;;;29.10;17.30;;;;;;;4.10;81.42;99560.29;207745;1298;140778;-67
2023/01/11 18:48:47;;;;;;;25.00;14.60;;;;;;;4.06;81.38;99558.09;210781;1296;142336;-68
2023/01/11 18:53:54;;;;;;;27.00;16.70;;;;;;;4.07;81.31;99552.77;210628;1298;140383;-68
2023/01/11 18:58:57;;;;;;;28.60;15.20;;;;;;;4.14;81.24;99550.24;210728;1295;140920;-68
2023/01/11 19:04:00;;;;;;;23.80;16.10;;;;;;;4.17;81.02;99548.39;208048;1300;140183;-67
2023/01/11 19:09:03;;;;;;;25.70;15.30;;;;;;;4.22;81.19;99551.00;209051;1292;140266;-68
2023/01/11 19:14:09;;;;;;;27.60;16.30;;;;;;;4.25;80.92;99559.39;208427;1289;139716;-68
2023/01/11 19:19:13;;;;;;;29.50;16.80;;;;;;;4.30;81.00;99556.34;208442;1290;139690;-68
2023/01/11 19:24:18;;;;;;;29.60;16.60;;;;;;;4.34;80.74;99551.48;207672;1293;139982;-67
2023/01/11 19:29:23;;;;;;;28.60;15.60;;;;;;;4.36;80.93;99549.17;208386;1296;139963;-68
2023/01/11 19:34:34;;;;;;;28.50;16.10;;;;;;;4.33;80.74;99552.24;209034;1291;140193;-66
2023/01/11 19:39:39;;;;;;;29.50;17.80;;;;;;;4.37;80.49;99556.23;207494;1292;140922;-68
2023/01/11 19:44:43;;;;;;;23.50;14.60;;;;;;;4.36;80.52;99560.21;208300;1293;140446;-67
2023/01/11 19:49:46;;;;;;;34.00;18.20;;;;;;;4.33;80.31;99558.30;208284;1287;140606;-68
2023/01/11 19:54:53;;;;;;;33.20;16.10;;;;;;;4.37;80.40;99555.59;208714;1291;140914;-66
2023/01/11 19:59:58;;;;;;;30.00;14.00;;;;;;;4.40;80.75;99551.95;207672;1287;140293;-67
2023/01/11 20:05:05;;;;;;;29.30;16.20;;;;;;;4.40;80.35;99550.82;208712;1286;140304;-66
2023/01/11 20:10:11;;;;;;;30.10;17.30;;;;;;;4.42;80.62;99550.98;208159;1285;140260;-67
2023/01/11 20:15:16;;;;;;;30.70;17.00;;;;;;;4.38;80.48;99546.90;207987;1292;140787;-68
2023/01/11 20:20:21;;;;;;;26.80;14.40;;;;;;;4.35;80.56;99547.50;208646;1287;140433;-67
2023/01/11 20:25:26;;;;;;;25.70;16.50;;;;;;;4.35;80.60;99550.30;207905;1285;141201;-68
2023/01/11 20:30:30;;;;;;;34.80;16.70;;;;;;;4.39;80.66;99552.63;207736;1285;140550;-68
2023/01/11 20:35:34;;;;;;;170.30;81.10;;;;;;;4.37;80.68;99558.92;208493;1288;585398;-68
2023/01/11 20:40:38;;;;;;;29.90;19.00;;;;;;;4.46;80.67;99562.16;207851;1286;140636;-67
2023/01/11 20:45:42;;;;;;;25.10;14.50;;;;;;;4.48;80.42;99555.91;210474;1298;140796;-67
2023/01/11 20:50:45;;;;;;;30.60;19.90;;;;;;;4.48;80.62;99558.10;210294;1286;139653;-67
2023/01/11 20:55:49;;;;;;;33.20;18.60;;;;;;;4.53;80.70;99559.74;208919;1285;208815;-68
2023/01/11 21:00:53;;;;;;;25.80;15.20;;;;;;;4.62;80.44;99561.25;210542;1283;141282;-68
2023/01/11 21:05:56;;;;;;;30.10;17.60;;;;;;;4.66;80.48;99560.73;210195;1288;139259;-69
2023/01/11 21:11:10;;;;;;;25.10;15.20;;;;;;;4.69;80.37;99561.70;207843;1286;139817;-68
2023/01/11 21:16:14;;;;;;;26.70;14.90;;;;;;;4.71;80.55;99564.20;209330;1286;140323;-68
2023/01/11 21:21:18;;;;;;;28.30;16.40;;;;;;;4.76;80.68;99560.27;207799;1280;140290;-67
2023/01/11 21:26:21;;;;;;;20.60;12.30;;;;;;;4.81;80.50;99557.72;209474;1288;140345;-69
2023/01/11 21:31:24;;;;;;;25.00;13.30;;;;;;;4.81;80.65;99556.75;208708;1286;139557;-69
2023/01/11 21:36:29;;;;;;;24.60;15.10;;;;;;;4.80;80.79;99559.51;209481;1284;139420;-70
2023/01/11 21:46:56;;;;;;;20.40;13.30;;;;;;;4.82;80.46;99561.90;208895;1291;223949;-65
2023/01/11 21:51:59;;;;;;;23.90;12.20;;;;;;;4.80;80.63;99566.45;207901;1279;139323;-64
2023/01/11 21:57:01;;;;;;;19.70;11.60;;;;;;;4.78;81.06;99571.60;208510;1285;139125;-65
2023/01/11 22:02:05;;;;;;;17.10;10.80;;;;;;;4.79;81.22;99581.19;208236;1285;139559;-66
2023/01/11 22:07:08;;;;;;;16.10;10.70;;;;;;;4.76;81.32;99584.60;208327;1286;139617;-65
2023/01/11 22:12:11;;;;;;;21.40;11.30;;;;;;;4.67;81.80;99590.79;208329;1294;141169;-66
2023/01/11 22:17:13;;;;;;;27.00;11.10;;;;;;;4.64;82.04;99590.54;208621;1298;139693;-67
2023/01/11 22:22:16;;;;;;;19.00;11.70;;;;;;;4.58;82.07;99586.19;208144;1282;141964;-66
2023/01/11 22:27:19;;;;;;;14.70;9.20;;;;;;;4.54;82.77;99593.05;209420;1294;140317;-67
2023/01/11 22:32:23;;;;;;;21.00;13.80;;;;;;;4.51;83.03;99589.38;208300;1298;140030;-66
2023/01/11 22:37:27;;;;;;;23.00;12.50;;;;;;;4.48;83.21;99604.03;209616;1295;140346;-66
2023/01/11 22:42:30;;;;;;;24.30;12.10;;;;;;;4.44;83.40;99598.37;210514;1295;140700;-67
2023/01/11 22:47:35;;;;;;;13.00;9.10;;;;;;;4.43;83.90;99602.83;210767;1291;139636;-66
2023/01/11 22:52:38;;;;;;;14.20;11.10;;;;;;;4.46;83.84;99604.18;210660;1294;142016;-64
2023/01/11 22:57:42;;;;;;;22.10;14.80;;;;;;;4.51;84.12;99601.08;210627;1285;153226;-66
2023/01/11 23:02:45;;;;;;;22.30;19.90;;;;;;;4.62;84.56;99604.91;209752;1295;142696;-67
2023/01/11 23:07:49;;;;;;;16.50;10.20;;;;;;;4.71;84.70;99601.56;208991;1291;140704;-67
2023/01/11 23:18:14;;;;;;;15.60;9.40;;;;;;;4.79;84.76;99597.04;209437;1291;139708;-66
2023/01/11 23:23:18;;;;;;;18.00;11.20;;;;;;;4.77;84.89;99599.55;207943;1292;140316;-66
2023/01/11 23:28:21;;;;;;;22.00;13.10;;;;;;;4.73;85.13;99602.71;209453;1293;139514;-66
2023/01/11 23:33:25;;;;;;;15.40;11.20;;;;;;;4.74;85.47;99605.35;208643;1286;140190;-66
2023/01/11 23:38:31;;;;;;;24.40;15.50;;;;;;;4.79;85.49;99600.05;208732;1292;141029;-66
2023/01/11 23:43:38;;;;;;;19.40;11.20;;;;;;;4.82;85.53;99602.20;208757;1293;142666;-67
2023/01/11 23:48:40;;;;;;;19.40;11.50;;;;;;;4.86;86.00;99607.73;208494;1292;141147;-66
2023/01/11 23:53:42;;;;;;;17.00;10.10;;;;;;;4.88;86.04;99606.92;207868;1291;141913;-67
2023/01/11 23:58:45;;;;;;;20.40;10.60;;;;;;;4.88;86.08;99613.34;208564;1286;140810;-67
